sensor_id;sensor_type;location;lat;lon;timestamp;temperature;humidity
2162;DHT22;1087;50.226;8.682;2023-03-14T00:00:52;10.90;99.90
2162;DHT22;1087;50.226;8.682;2023-03-14T00:03:18;11.00;99.90
2162;DHT22;1087;50.226;8.682;2023-03-14T00:05:43;11.00;99.90
2162;DHT22;1087;50.226;8.682;2023-03-14T00:08:09;10.90;99.90
2162;DHT22;1087;50.226;8.682;2023-03-14T00:10:36;11.00;99.90
2162;DHT22;1087;50.226;8.682;2023-03-14T00:13:02;11.00;99.90
2162;DHT22;1087;50.226;8.682;2023-03-14T00:15:27;11.00;99.90
2162;DHT22;1087;50.226;8.682;2023-03-14T00:17:53;11.00;99.90
2162;DHT22;1087;50.226;8.682;2023-03-14T00:20:18;10.90;99.90
2162;DHT22;1087;50.226;8.682;2023-03-14T00:22:44;11.00;99.90
2162;DHT22;1087;50.226;8.682;2023-03-14T00:25:11;11.00;99.90
2162;DHT22;1087;50.226;8.682;2023-03-14T00:27:37;11.10;99.90
2162;DHT22;1087;50.226;8.682;2023-03-14T00:30:04;11.10;99.90
2162;DHT22;1087;50.226;8.682;2023-03-14T00:32:30;11.10;99.90
2162;DHT22;1087;50.226;8.682;2023-03-14T00:34:55;11.20;99.90
2162;DHT22;1087;50.226;8.682;2023-03-14T00:37:21;11.10;99.90
2162;DHT22;1087;50.226;8.682;2023-03-14T00:39:46;11.10;99.90
2162;DHT22;1087;50.226;8.682;2023-03-14T00:42:13;11.10;99.90
2162;DHT22;1087;50.226;8.682;2023-03-14T00:44:38;11.20;99.90
2162;DHT22;1087;50.226;8.682;2023-03-14T00:47:04;11.20;99.90
2162;DHT22;1087;50.226;8.682;2023-03-14T00:49:29;11.10;99.90
2162;DHT22;1087;50.226;8.682;2023-03-14T00:51:55;11.10;99.90
2162;DHT22;1087;50.226;8.682;2023-03-14T00:54:20;11.10;99.90
2162;DHT22;1087;50.226;8.682;2023-03-14T00:56:46;11.20;99.90
2162;DHT22;1087;50.226;8.682;2023-03-14T00:59:11;11.20;99.90
2162;DHT22;1087;50.226;8.682;2023-03-14T01:01:38;11.30;99.90
2162;DHT22;1087;50.226;8.682;2023-03-14T01:04:04;11.30;99.90
2162;DHT22;1087;50.226;8.682;2023-03-14T01:06:30;11.30;99.90
2162;DHT22;1087;50.226;8.682;2023-03-14T01:08:56;11.30;99.90
2162;DHT22;1087;50.226;8.682;2023-03-14T01:11:25;11.30;99.90
2162;DHT22;1087;50.226;8.682;2023-03-14T01:13:51;11.30;99.90
2162;DHT22;1087;50.226;8.682;2023-03-14T01:16:18;11.30;99.90
2162;DHT22;1087;50.226;8.682;2023-03-14T01:18:45;11.40;99.90
2162;DHT22;1087;50.226;8.682;2023-03-14T01:21:14;11.40;99.90
2162;DHT22;1087;50.226;8.682;2023-03-14T01:23:41;11.40;99.90
2162;DHT22;1087;50.226;8.682;2023-03-14T01:26:11;11.50;99.90
2162;DHT22;1087;50.226;8.682;2023-03-14T01:28:37;11.40;99.90
2162;DHT22;1087;50.226;8.682;2023-03-14T01:31:08;11.50;99.90
2162;DHT22;1087;50.226;8.682;2023-03-14T01:33:34;11.60;99.90
2162;DHT22;1087;50.226;8.682;2023-03-14T01:36:00;11.60;99.90
2162;DHT22;1087;50.226;8.682;2023-03-14T01:38:28;11.60;99.90
2162;DHT22;1087;50.226;8.682;2023-03-14T01:40:54;11.50;99.90
2162;DHT22;1087;50.226;8.682;2023-03-14T01:43:20;11.50;99.90
2162;DHT22;1087;50.226;8.682;2023-03-14T01:51:05;11.40;99.90
2162;DHT22;1087;50.226;8.682;2023-03-14T01:53:31;11.30;99.90
2162;DHT22;1087;50.226;8.682;2023-03-14T01:55:57;11.30;99.90
2162;DHT22;1087;50.226;8.682;2023-03-14T01:58:24;11.30;99.90
2162;DHT22;1087;50.226;8.682;2023-03-14T02:00:53;11.30;99.90
2162;DHT22;1087;50.226;8.682;2023-03-14T02:03:20;11.20;99.90
2162;DHT22;1087;50.226;8.682;2023-03-14T02:05:48;11.20;99.90
2162;DHT22;1087;50.226;8.682;2023-03-14T02:08:17;11.20;99.90
2162;DHT22;1087;50.226;8.682;2023-03-14T02:10:45;11.20;99.90
2162;DHT22;1087;50.226;8.682;2023-03-14T02:13:13;11.10;99.90
2162;DHT22;1087;50.226;8.682;2023-03-14T02:15:39;11.10;99.90
2162;DHT22;1087;50.226;8.682;2023-03-14T02:18:05;11.10;99.90
2162;DHT22;1087;50.226;8.682;2023-03-14T02:20:51;11.10;99.90
2162;DHT22;1087;50.226;8.682;2023-03-14T02:23:36;11.20;99.90
2162;DHT22;1087;50.226;8.682;2023-03-14T02:26:12;11.20;99.90
2162;DHT22;1087;50.226;8.682;2023-03-14T02:28:38;11.20;99.90
2162;DHT22;1087;50.226;8.682;2023-03-14T02:31:04;11.20;99.90
2162;DHT22;1087;50.226;8.682;2023-03-14T02:33:30;11.20;99.90
2162;DHT22;1087;50.226;8.682;2023-03-14T02:36:02;11.20;99.90
2162;DHT22;1087;50.226;8.682;2023-03-14T02:40:56;11.10;99.90
2162;DHT22;1087;50.226;8.682;2023-03-14T02:43:22;11.20;99.90
2162;DHT22;1087;50.226;8.682;2023-03-14T02:45:48;11.30;99.90
2162;DHT22;1087;50.226;8.682;2023-03-14T02:51:20;11.30;99.90
2162;DHT22;1087;50.226;8.682;2023-03-14T02:53:46;11.20;99.90
2162;DHT22;1087;50.226;8.682;2023-03-14T02:56:12;11.30;99.90
2162;DHT22;1087;50.226;8.682;2023-03-14T02:58:38;11.20;99.90
2162;DHT22;1087;50.226;8.682;2023-03-14T03:01:04;11.10;99.90
2162;DHT22;1087;50.226;8.682;2023-03-14T03:03:29;11.10;99.90
2162;DHT22;1087;50.226;8.682;2023-03-14T03:05:56;11.10;99.90
2162;DHT22;1087;50.226;8.682;2023-03-14T03:08:24;11.10;99.90
2162;DHT22;1087;50.226;8.682;2023-03-14T03:10:50;11.10;99.90
2162;DHT22;1087;50.226;8.682;2023-03-14T03:13:17;11.20;99.90
2162;DHT22;1087;50.226;8.682;2023-03-14T03:15:43;11.10;99.90
2162;DHT22;1087;50.226;8.682;2023-03-14T03:18:09;11.20;99.90
2162;DHT22;1087;50.226;8.682;2023-03-14T03:20:35;11.20;99.90
2162;DHT22;1087;50.226;8.682;2023-03-14T03:23:01;11.20;99.90
2162;DHT22;1087;50.226;8.682;2023-03-14T03:25:27;11.20;99.90
2162;DHT22;1087;50.226;8.682;2023-03-14T03:27:53;11.10;99.90
2162;DHT22;1087;50.226;8.682;2023-03-14T03:30:19;11.20;99.90
2162;DHT22;1087;50.226;8.682;2023-03-14T03:32:44;11.20;99.90
2162;DHT22;1087;50.226;8.682;2023-03-14T03:35:10;11.30;99.90
2162;DHT22;1087;50.226;8.682;2023-03-14T03:37:36;11.20;99.90
2162;DHT22;1087;50.226;8.682;2023-03-14T03:40:02;11.30;99.90
2162;DHT22;1087;50.226;8.682;2023-03-14T03:42:31;11.20;99.90
2162;DHT22;1087;50.226;8.682;2023-03-14T03:44:57;11.30;99.90
2162;DHT22;1087;50.226;8.682;2023-03-14T03:47:22;11.20;99.90
2162;DHT22;1087;50.226;8.682;2023-03-14T03:49:48;11.20;99.90
2162;DHT22;1087;50.226;8.682;2023-03-14T03:52:13;11.20;99.90
2162;DHT22;1087;50.226;8.682;2023-03-14T03:54:39;11.20;99.90
2162;DHT22;1087;50.226;8.682;2023-03-14T03:57:04;11.10;99.90
2162;DHT22;1087;50.226;8.682;2023-03-14T03:59:30;11.10;99.90
2162;DHT22;1087;50.226;8.682;2023-03-14T04:01:55;11.20;99.90
2162;DHT22;1087;50.226;8.682;2023-03-14T04:04:21;11.20;99.90
2162;DHT22;1087;50.226;8.682;2023-03-14T04:06:46;11.30;99.90
2162;DHT22;1087;50.226;8.682;2023-03-14T04:09:12;11.20;99.90
2162;DHT22;1087;50.226;8.682;2023-03-14T04:11:37;11.10;99.90
2162;DHT22;1087;50.226;8.682;2023-03-14T04:14:05;11.20;99.90
2162;DHT22;1087;50.226;8.682;2023-03-14T04:16:31;11.20;99.90
2162;DHT22;1087;50.226;8.682;2023-03-14T04:19:00;11.20;99.90
2162;DHT22;1087;50.226;8.682;2023-03-14T04:21:25;11.20;99.90
2162;DHT22;1087;50.226;8.682;2023-03-14T04:23:51;11.20;99.90
2162;DHT22;1087;50.226;8.682;2023-03-14T04:26:17;11.30;99.90
2162;DHT22;1087;50.226;8.682;2023-03-14T04:28:43;11.20;99.90
2162;DHT22;1087;50.226;8.682;2023-03-14T04:31:10;11.30;99.90
2162;DHT22;1087;50.226;8.682;2023-03-14T04:33:36;11.20;99.90
2162;DHT22;1087;50.226;8.682;2023-03-14T04:36:03;11.20;99.90
2162;DHT22;1087;50.226;8.682;2023-03-14T04:38:28;11.20;99.90
2162;DHT22;1087;50.226;8.682;2023-03-14T04:40:54;11.20;99.90
2162;DHT22;1087;50.226;8.682;2023-03-14T04:43:19;11.20;99.90
2162;DHT22;1087;50.226;8.682;2023-03-14T04:45:45;11.20;99.90
2162;DHT22;1087;50.226;8.682;2023-03-14T04:48:11;11.20;99.90
2162;DHT22;1087;50.226;8.682;2023-03-14T04:50:37;11.10;99.90
2162;DHT22;1087;50.226;8.682;2023-03-14T04:53:03;11.10;99.90
2162;DHT22;1087;50.226;8.682;2023-03-14T04:55:28;11.10;99.90
2162;DHT22;1087;50.226;8.682;2023-03-14T04:57:54;11.10;99.90
2162;DHT22;1087;50.226;8.682;2023-03-14T05:00:19;11.10;99.90
2162;DHT22;1087;50.226;8.682;2023-03-14T05:02:45;11.10;99.90
2162;DHT22;1087;50.226;8.682;2023-03-14T05:05:11;11.00;99.90
2162;DHT22;1087;50.226;8.682;2023-03-14T05:07:36;11.10;99.90
2162;DHT22;1087;50.226;8.682;2023-03-14T05:10:02;11.10;99.90
2162;DHT22;1087;50.226;8.682;2023-03-14T05:12:28;11.00;99.90
2162;DHT22;1087;50.226;8.682;2023-03-14T05:14:53;11.00;99.90
2162;DHT22;1087;50.226;8.682;2023-03-14T05:17:19;11.10;99.90
2162;DHT22;1087;50.226;8.682;2023-03-14T05:19:45;11.10;99.90
2162;DHT22;1087;50.226;8.682;2023-03-14T05:22:11;11.10;99.90
2162;DHT22;1087;50.226;8.682;2023-03-14T05:24:36;11.10;99.90
2162;DHT22;1087;50.226;8.682;2023-03-14T05:27:02;11.10;99.90
2162;DHT22;1087;50.226;8.682;2023-03-14T05:29:28;11.00;99.90
2162;DHT22;1087;50.226;8.682;2023-03-14T05:31:53;11.10;99.90
2162;DHT22;1087;50.226;8.682;2023-03-14T05:34:19;11.10;99.90
2162;DHT22;1087;50.226;8.682;2023-03-14T05:36:44;11.10;99.90
2162;DHT22;1087;50.226;8.682;2023-03-14T05:39:10;11.20;99.90
2162;DHT22;1087;50.226;8.682;2023-03-14T05:41:36;11.00;99.90
2162;DHT22;1087;50.226;8.682;2023-03-14T05:44:01;11.00;99.90
2162;DHT22;1087;50.226;8.682;2023-03-14T05:46:27;11.00;99.90
2162;DHT22;1087;50.226;8.682;2023-03-14T05:48:52;11.00;99.90
2162;DHT22;1087;50.226;8.682;2023-03-14T05:51:18;11.00;99.90
2162;DHT22;1087;50.226;8.682;2023-03-14T05:53:43;11.00;99.90
2162;DHT22;1087;50.226;8.682;2023-03-14T05:56:09;11.00;99.90
2162;DHT22;1087;50.226;8.682;2023-03-14T05:58:34;11.00;99.90
2162;DHT22;1087;50.226;8.682;2023-03-14T06:01:04;11.00;99.90
2162;DHT22;1087;50.226;8.682;2023-03-14T06:03:31;11.00;99.90
2162;DHT22;1087;50.226;8.682;2023-03-14T06:05:57;10.90;99.90
2162;DHT22;1087;50.226;8.682;2023-03-14T06:08:22;10.90;99.90
2162;DHT22;1087;50.226;8.682;2023-03-14T06:10:48;10.90;99.90
2162;DHT22;1087;50.226;8.682;2023-03-14T06:13:13;10.90;99.90
2162;DHT22;1087;50.226;8.682;2023-03-14T06:15:41;11.00;99.90
2162;DHT22;1087;50.226;8.682;2023-03-14T06:18:06;11.00;99.90
2162;DHT22;1087;50.226;8.682;2023-03-14T06:20:32;10.90;99.90
2162;DHT22;1087;50.226;8.682;2023-03-14T06:22:58;10.90;99.90
2162;DHT22;1087;50.226;8.682;2023-03-14T06:25:24;10.90;99.90
2162;DHT22;1087;50.226;8.682;2023-03-14T06:27:50;10.90;99.90
2162;DHT22;1087;50.226;8.682;2023-03-14T06:30:16;10.90;99.90
2162;DHT22;1087;50.226;8.682;2023-03-14T06:32:41;10.80;99.90
2162;DHT22;1087;50.226;8.682;2023-03-14T06:35:07;10.80;99.90
2162;DHT22;1087;50.226;8.682;2023-03-14T06:37:33;10.90;99.90
2162;DHT22;1087;50.226;8.682;2023-03-14T06:39:59;10.90;99.90
2162;DHT22;1087;50.226;8.682;2023-03-14T06:42:24;10.80;99.90
2162;DHT22;1087;50.226;8.682;2023-03-14T06:44:50;10.80;99.90
2162;DHT22;1087;50.226;8.682;2023-03-14T06:47:15;10.80;99.90
2162;DHT22;1087;50.226;8.682;2023-03-14T06:49:41;10.80;99.90
2162;DHT22;1087;50.226;8.682;2023-03-14T06:52:06;10.80;99.90
2162;DHT22;1087;50.226;8.682;2023-03-14T06:54:32;10.90;99.90
2162;DHT22;1087;50.226;8.682;2023-03-14T06:56:57;10.90;99.90
2162;DHT22;1087;50.226;8.682;2023-03-14T06:59:23;10.90;99.90
2162;DHT22;1087;50.226;8.682;2023-03-14T07:01:48;11.00;99.90
2162;DHT22;1087;50.226;8.682;2023-03-14T07:04:16;11.10;99.90
2162;DHT22;1087;50.226;8.682;2023-03-14T07:06:42;11.10;99.90
2162;DHT22;1087;50.226;8.682;2023-03-14T07:09:10;11.10;99.90
2162;DHT22;1087;50.226;8.682;2023-03-14T07:11:36;11.10;99.90
2162;DHT22;1087;50.226;8.682;2023-03-14T07:14:01;11.10;99.90
2162;DHT22;1087;50.226;8.682;2023-03-14T07:16:27;11.10;99.90
2162;DHT22;1087;50.226;8.682;2023-03-14T07:18:56;11.10;99.90
2162;DHT22;1087;50.226;8.682;2023-03-14T07:21:22;11.20;99.90
2162;DHT22;1087;50.226;8.682;2023-03-14T07:23:48;11.20;99.90
2162;DHT22;1087;50.226;8.682;2023-03-14T07:26:13;11.10;99.90
2162;DHT22;1087;50.226;8.682;2023-03-14T07:28:39;11.20;99.90
2162;DHT22;1087;50.226;8.682;2023-03-14T07:31:04;11.10;99.90
2162;DHT22;1087;50.226;8.682;2023-03-14T07:33:30;11.00;99.90
2162;DHT22;1087;50.226;8.682;2023-03-14T07:35:56;11.00;99.90
2162;DHT22;1087;50.226;8.682;2023-03-14T07:38:21;11.00;99.90
2162;DHT22;1087;50.226;8.682;2023-03-14T07:40:47;11.00;99.90
2162;DHT22;1087;50.226;8.682;2023-03-14T07:43:12;10.90;99.90
2162;DHT22;1087;50.226;8.682;2023-03-14T07:45:38;10.90;99.90
2162;DHT22;1087;50.226;8.682;2023-03-14T07:48:03;10.90;99.90
2162;DHT22;1087;50.226;8.682;2023-03-14T07:50:29;10.80;99.90
2162;DHT22;1087;50.226;8.682;2023-03-14T07:52:55;10.90;99.90
2162;DHT22;1087;50.226;8.682;2023-03-14T07:55:20;10.80;99.90
2162;DHT22;1087;50.226;8.682;2023-03-14T07:57:46;10.80;99.90
2162;DHT22;1087;50.226;8.682;2023-03-14T08:00:12;10.80;99.90
2162;DHT22;1087;50.226;8.682;2023-03-14T08:02:40;10.90;99.90
2162;DHT22;1087;50.226;8.682;2023-03-14T08:05:06;10.80;99.90
2162;DHT22;1087;50.226;8.682;2023-03-14T08:07:31;10.80;99.90
2162;DHT22;1087;50.226;8.682;2023-03-14T08:09:57;10.80;99.90
2162;DHT22;1087;50.226;8.682;2023-03-14T08:12:22;10.90;99.90
2162;DHT22;1087;50.226;8.682;2023-03-14T08:14:48;10.80;99.90
2162;DHT22;1087;50.226;8.682;2023-03-14T08:17:13;10.80;99.90
2162;DHT22;1087;50.226;8.682;2023-03-14T08:19:41;10.80;99.90
2162;DHT22;1087;50.226;8.682;2023-03-14T08:22:06;10.80;99.90
2162;DHT22;1087;50.226;8.682;2023-03-14T08:24:32;10.80;99.90
2162;DHT22;1087;50.226;8.682;2023-03-14T08:26:57;10.80;99.90
2162;DHT22;1087;50.226;8.682;2023-03-14T08:29:23;10.80;99.90
2162;DHT22;1087;50.226;8.682;2023-03-14T08:31:48;10.80;99.90
2162;DHT22;1087;50.226;8.682;2023-03-14T08:34:14;10.80;99.90
2162;DHT22;1087;50.226;8.682;2023-03-14T08:36:40;10.80;99.90
2162;DHT22;1087;50.226;8.682;2023-03-14T08:39:06;10.80;99.90
2162;DHT22;1087;50.226;8.682;2023-03-14T08:41:33;10.80;99.90
2162;DHT22;1087;50.226;8.682;2023-03-14T08:43:58;10.80;99.90
2162;DHT22;1087;50.226;8.682;2023-03-14T08:46:24;10.90;99.90
2162;DHT22;1087;50.226;8.682;2023-03-14T08:48:49;10.90;99.90
2162;DHT22;1087;50.226;8.682;2023-03-14T08:51:15;10.90;99.90
2162;DHT22;1087;50.226;8.682;2023-03-14T08:53:41;10.90;99.90
2162;DHT22;1087;50.226;8.682;2023-03-14T08:56:07;11.00;99.90
2162;DHT22;1087;50.226;8.682;2023-03-14T08:58:35;11.00;99.90
2162;DHT22;1087;50.226;8.682;2023-03-14T09:01:05;11.10;99.90
2162;DHT22;1087;50.226;8.682;2023-03-14T09:03:31;11.10;99.90
2162;DHT22;1087;50.226;8.682;2023-03-14T09:06:02;11.10;99.90
2162;DHT22;1087;50.226;8.682;2023-03-14T09:08:28;11.10;99.90
2162;DHT22;1087;50.226;8.682;2023-03-14T09:10:54;11.20;99.90
2162;DHT22;1087;50.226;8.682;2023-03-14T09:13:19;11.20;99.90
2162;DHT22;1087;50.226;8.682;2023-03-14T09:15:46;11.20;99.90
2162;DHT22;1087;50.226;8.682;2023-03-14T09:18:15;11.20;99.90
2162;DHT22;1087;50.226;8.682;2023-03-14T09:20:40;11.30;99.90
2162;DHT22;1087;50.226;8.682;2023-03-14T09:23:06;11.30;99.90
2162;DHT22;1087;50.226;8.682;2023-03-14T09:25:31;11.20;99.90
2162;DHT22;1087;50.226;8.682;2023-03-14T09:27:57;11.20;99.90
2162;DHT22;1087;50.226;8.682;2023-03-14T09:30:22;11.20;99.90
2162;DHT22;1087;50.226;8.682;2023-03-14T09:32:48;11.10;99.90
2162;DHT22;1087;50.226;8.682;2023-03-14T09:35:13;11.10;99.90
2162;DHT22;1087;50.226;8.682;2023-03-14T09:37:39;11.10;99.90
2162;DHT22;1087;50.226;8.682;2023-03-14T09:40:05;11.00;99.90
2162;DHT22;1087;50.226;8.682;2023-03-14T09:42:37;11.10;99.90
2162;DHT22;1087;50.226;8.682;2023-03-14T09:45:07;11.10;99.90
2162;DHT22;1087;50.226;8.682;2023-03-14T09:47:36;11.00;99.90
2162;DHT22;1087;50.226;8.682;2023-03-14T09:50:01;11.00;99.90
2162;DHT22;1087;50.226;8.682;2023-03-14T09:52:31;11.10;99.90
2162;DHT22;1087;50.226;8.682;2023-03-14T09:55:01;11.10;99.90
2162;DHT22;1087;50.226;8.682;2023-03-14T09:57:29;11.10;99.90
2162;DHT22;1087;50.226;8.682;2023-03-14T10:00:02;11.10;99.90
2162;DHT22;1087;50.226;8.682;2023-03-14T10:02:37;11.10;99.90
2162;DHT22;1087;50.226;8.682;2023-03-14T10:05:14;11.10;99.90
2162;DHT22;1087;50.226;8.682;2023-03-14T10:07:40;11.10;99.90
2162;DHT22;1087;50.226;8.682;2023-03-14T10:12:37;11.10;99.90
2162;DHT22;1087;50.226;8.682;2023-03-14T10:15:10;11.10;99.90
2162;DHT22;1087;50.226;8.682;2023-03-14T10:17:47;11.20;99.90
2162;DHT22;1087;50.226;8.682;2023-03-14T10:20:30;11.20;99.90
2162;DHT22;1087;50.226;8.682;2023-03-14T10:23:06;11.10;99.90
2162;DHT22;1087;50.226;8.682;2023-03-14T10:25:46;11.20;99.90
2162;DHT22;1087;50.226;8.682;2023-03-14T10:28:24;11.30;99.90
2162;DHT22;1087;50.226;8.682;2023-03-14T10:30:51;11.40;99.90
2162;DHT22;1087;50.226;8.682;2023-03-14T10:35:42;11.30;99.90
2162;DHT22;1087;50.226;8.682;2023-03-14T10:38:12;11.40;99.90
2162;DHT22;1087;50.226;8.682;2023-03-14T10:40:40;11.40;99.90
2162;DHT22;1087;50.226;8.682;2023-03-14T10:43:13;11.50;99.90
2162;DHT22;1087;50.226;8.682;2023-03-14T10:45:42;11.40;99.90
2162;DHT22;1087;50.226;8.682;2023-03-14T10:48:37;11.40;99.90
2162;DHT22;1087;50.226;8.682;2023-03-14T10:53:45;11.30;99.90
2162;DHT22;1087;50.226;8.682;2023-03-14T10:56:34;11.30;99.90
2162;DHT22;1087;50.226;8.682;2023-03-14T10:59:00;11.30;99.90
2162;DHT22;1087;50.226;8.682;2023-03-14T11:07:24;11.50;99.90
2162;DHT22;1087;50.226;8.682;2023-03-14T11:09:56;11.40;99.90
2162;DHT22;1087;50.226;8.682;2023-03-14T11:15:36;11.50;99.90
2162;DHT22;1087;50.226;8.682;2023-03-14T11:19:06;11.50;99.90
2162;DHT22;1087;50.226;8.682;2023-03-14T11:29:46;11.50;99.90
2162;DHT22;1087;50.226;8.682;2023-03-14T11:37:47;11.40;99.90
2162;DHT22;1087;50.226;8.682;2023-03-14T11:40:19;11.40;99.90
2162;DHT22;1087;50.226;8.682;2023-03-14T11:45:39;11.30;99.90
2162;DHT22;1087;50.226;8.682;2023-03-14T11:50:48;11.20;99.90
2162;DHT22;1087;50.226;8.682;2023-03-14T11:56:13;11.40;99.90
2162;DHT22;1087;50.226;8.682;2023-03-14T11:59:20;11.40;99.90
2162;DHT22;1087;50.226;8.682;2023-03-14T12:01:58;11.50;99.90
2162;DHT22;1087;50.226;8.682;2023-03-14T12:07:26;11.50;99.90
2162;DHT22;1087;50.226;8.682;2023-03-14T12:09:55;11.30;99.90
2162;DHT22;1087;50.226;8.682;2023-03-14T12:12:24;11.00;99.90
2162;DHT22;1087;50.226;8.682;2023-03-14T12:14:58;10.50;99.90
2162;DHT22;1087;50.226;8.682;2023-03-14T12:17:35;10.30;99.90
2162;DHT22;1087;50.226;8.682;2023-03-14T12:20:05;10.10;99.90
2162;DHT22;1087;50.226;8.682;2023-03-14T12:22:43;9.90;99.90
2162;DHT22;1087;50.226;8.682;2023-03-14T12:25:20;9.70;99.90
2162;DHT22;1087;50.226;8.682;2023-03-14T12:33:27;9.60;99.90
2162;DHT22;1087;50.226;8.682;2023-03-14T12:35:58;9.60;99.90
2162;DHT22;1087;50.226;8.682;2023-03-14T12:38:47;9.60;99.90
2162;DHT22;1087;50.226;8.682;2023-03-14T12:46:57;10.00;99.90
2162;DHT22;1087;50.226;8.682;2023-03-14T12:49:29;10.00;99.90
2162;DHT22;1087;50.226;8.682;2023-03-14T12:52:00;10.00;99.90
2162;DHT22;1087;50.226;8.682;2023-03-14T12:54:51;9.90;99.90
2162;DHT22;1087;50.226;8.682;2023-03-14T12:57:45;10.00;99.90
2162;DHT22;1087;50.226;8.682;2023-03-14T13:00:21;10.00;99.90
2162;DHT22;1087;50.226;8.682;2023-03-14T13:02:48;10.00;99.90
2162;DHT22;1087;50.226;8.682;2023-03-14T13:05:24;9.90;99.90
2162;DHT22;1087;50.226;8.682;2023-03-14T13:10:23;10.00;99.90
2162;DHT22;1087;50.226;8.682;2023-03-14T13:13:12;10.10;99.90
2162;DHT22;1087;50.226;8.682;2023-03-14T13:15:42;10.20;99.90
2162;DHT22;1087;50.226;8.682;2023-03-14T13:18:17;10.20;99.90
2162;DHT22;1087;50.226;8.682;2023-03-14T13:20:51;10.10;99.90
2162;DHT22;1087;50.226;8.682;2023-03-14T13:23:37;10.20;99.90
2162;DHT22;1087;50.226;8.682;2023-03-14T13:26:09;10.20;99.90
2162;DHT22;1087;50.226;8.682;2023-03-14T13:28:36;10.20;99.90
2162;DHT22;1087;50.226;8.682;2023-03-14T13:31:03;10.20;99.90
2162;DHT22;1087;50.226;8.682;2023-03-14T13:33:30;10.30;99.90
2162;DHT22;1087;50.226;8.682;2023-03-14T13:38:25;10.40;99.90
2162;DHT22;1087;50.226;8.682;2023-03-14T13:40:53;10.40;99.90
2162;DHT22;1087;50.226;8.682;2023-03-14T13:43:29;10.50;99.90
2162;DHT22;1087;50.226;8.682;2023-03-14T13:46:11;10.60;99.90
2162;DHT22;1087;50.226;8.682;2023-03-14T13:48:44;10.60;99.90
2162;DHT22;1087;50.226;8.682;2023-03-14T13:51:12;10.50;99.90
2162;DHT22;1087;50.226;8.682;2023-03-14T13:53:43;10.50;99.90
2162;DHT22;1087;50.226;8.682;2023-03-14T13:56:10;10.30;99.90
2162;DHT22;1087;50.226;8.682;2023-03-14T13:58:37;10.30;99.90
2162;DHT22;1087;50.226;8.682;2023-03-14T14:03:39;10.50;99.90
2162;DHT22;1087;50.226;8.682;2023-03-14T14:06:11;10.50;99.90
2162;DHT22;1087;50.226;8.682;2023-03-14T14:08:41;10.50;99.90
2162;DHT22;1087;50.226;8.682;2023-03-14T14:11:16;10.50;99.90
2162;DHT22;1087;50.226;8.682;2023-03-14T14:13:44;10.50;99.90
2162;DHT22;1087;50.226;8.682;2023-03-14T14:16:10;10.20;99.90
2162;DHT22;1087;50.226;8.682;2023-03-14T14:18:36;10.00;99.90
2162;DHT22;1087;50.226;8.682;2023-03-14T14:21:02;9.90;99.90
2162;DHT22;1087;50.226;8.682;2023-03-14T14:23:29;9.60;99.90
2162;DHT22;1087;50.226;8.682;2023-03-14T14:25:56;9.70;99.90
2162;DHT22;1087;50.226;8.682;2023-03-14T14:28:33;9.80;99.90
2162;DHT22;1087;50.226;8.682;2023-03-14T14:31:22;9.70;99.90
2162;DHT22;1087;50.226;8.682;2023-03-14T14:33:58;9.70;99.90
2162;DHT22;1087;50.226;8.682;2023-03-14T14:36:39;9.40;99.90
2162;DHT22;1087;50.226;8.682;2023-03-14T14:39:20;9.40;99.90
2162;DHT22;1087;50.226;8.682;2023-03-14T14:41:48;9.40;99.90
2162;DHT22;1087;50.226;8.682;2023-03-14T14:44:18;9.40;99.90
2162;DHT22;1087;50.226;8.682;2023-03-14T14:46:46;9.40;99.90
2162;DHT22;1087;50.226;8.682;2023-03-14T14:49:18;9.60;99.90
2162;DHT22;1087;50.226;8.682;2023-03-14T14:51:48;9.50;99.90
2162;DHT22;1087;50.226;8.682;2023-03-14T14:54:18;9.40;99.90
2162;DHT22;1087;50.226;8.682;2023-03-14T14:56:50;9.40;99.90
2162;DHT22;1087;50.226;8.682;2023-03-14T14:59:25;9.40;99.90
2162;DHT22;1087;50.226;8.682;2023-03-14T15:01:56;9.40;99.90
2162;DHT22;1087;50.226;8.682;2023-03-14T15:04:22;9.40;99.90
2162;DHT22;1087;50.226;8.682;2023-03-14T15:06:50;9.60;99.90
2162;DHT22;1087;50.226;8.682;2023-03-14T15:09:18;9.50;99.90
2162;DHT22;1087;50.226;8.682;2023-03-14T15:11:44;9.50;99.90
2162;DHT22;1087;50.226;8.682;2023-03-14T15:14:09;9.60;99.90
2162;DHT22;1087;50.226;8.682;2023-03-14T15:16:35;9.70;99.90
2162;DHT22;1087;50.226;8.682;2023-03-14T15:19:05;9.80;99.90
2162;DHT22;1087;50.226;8.682;2023-03-14T15:21:33;9.80;99.90
2162;DHT22;1087;50.226;8.682;2023-03-14T15:23:59;9.70;99.90
2162;DHT22;1087;50.226;8.682;2023-03-14T15:26:26;9.70;99.90
2162;DHT22;1087;50.226;8.682;2023-03-14T15:28:52;9.60;99.90
2162;DHT22;1087;50.226;8.682;2023-03-14T15:31:19;9.50;99.90
2162;DHT22;1087;50.226;8.682;2023-03-14T15:33:47;9.40;99.90
2162;DHT22;1087;50.226;8.682;2023-03-14T15:36:27;9.50;99.90
2162;DHT22;1087;50.226;8.682;2023-03-14T15:38:54;9.40;99.90
2162;DHT22;1087;50.226;8.682;2023-03-14T15:41:21;9.30;99.90
2162;DHT22;1087;50.226;8.682;2023-03-14T15:43:47;9.20;99.90
2162;DHT22;1087;50.226;8.682;2023-03-14T15:46:13;9.10;99.90
2162;DHT22;1087;50.226;8.682;2023-03-14T15:48:40;9.10;99.90
2162;DHT22;1087;50.226;8.682;2023-03-14T15:51:05;9.10;99.90
2162;DHT22;1087;50.226;8.682;2023-03-14T15:53:31;9.00;99.90
2162;DHT22;1087;50.226;8.682;2023-03-14T15:55:57;9.10;99.90
2162;DHT22;1087;50.226;8.682;2023-03-14T15:58:22;8.90;99.90
2162;DHT22;1087;50.226;8.682;2023-03-14T16:00:48;8.90;99.90
2162;DHT22;1087;50.226;8.682;2023-03-14T16:03:14;9.00;99.90
2162;DHT22;1087;50.226;8.682;2023-03-14T16:05:40;8.80;99.90
2162;DHT22;1087;50.226;8.682;2023-03-14T16:08:06;8.90;99.90
2162;DHT22;1087;50.226;8.682;2023-03-14T16:10:32;9.10;99.90
2162;DHT22;1087;50.226;8.682;2023-03-14T16:12:57;9.10;99.90
2162;DHT22;1087;50.226;8.682;2023-03-14T16:15:23;9.20;99.90
2162;DHT22;1087;50.226;8.682;2023-03-14T16:17:54;9.30;99.90
2162;DHT22;1087;50.226;8.682;2023-03-14T16:20:21;9.30;99.90
2162;DHT22;1087;50.226;8.682;2023-03-14T16:22:47;9.30;99.90
2162;DHT22;1087;50.226;8.682;2023-03-14T16:25:13;9.10;99.90
2162;DHT22;1087;50.226;8.682;2023-03-14T16:27:38;9.10;99.90
2162;DHT22;1087;50.226;8.682;2023-03-14T16:30:05;9.20;99.90
2162;DHT22;1087;50.226;8.682;2023-03-14T16:32:30;9.30;99.90
2162;DHT22;1087;50.226;8.682;2023-03-14T16:34:56;9.30;99.90
2162;DHT22;1087;50.226;8.682;2023-03-14T16:37:25;9.20;99.90
2162;DHT22;1087;50.226;8.682;2023-03-14T16:39:52;9.30;99.90
2162;DHT22;1087;50.226;8.682;2023-03-14T16:42:17;9.10;99.90
2162;DHT22;1087;50.226;8.682;2023-03-14T16:44:44;9.10;99.90
2162;DHT22;1087;50.226;8.682;2023-03-14T16:47:09;9.10;99.90
2162;DHT22;1087;50.226;8.682;2023-03-14T16:49:35;8.90;99.90
2162;DHT22;1087;50.226;8.682;2023-03-14T16:52:01;8.80;99.90
2162;DHT22;1087;50.226;8.682;2023-03-14T16:54:26;8.90;99.90
2162;DHT22;1087;50.226;8.682;2023-03-14T16:56:52;8.90;99.90
2162;DHT22;1087;50.226;8.682;2023-03-14T16:59:18;8.90;99.90
2162;DHT22;1087;50.226;8.682;2023-03-14T17:01:44;8.90;99.90
2162;DHT22;1087;50.226;8.682;2023-03-14T17:04:10;8.90;99.90
2162;DHT22;1087;50.226;8.682;2023-03-14T17:06:36;8.80;99.90
2162;DHT22;1087;50.226;8.682;2023-03-14T17:09:03;8.70;99.90
2162;DHT22;1087;50.226;8.682;2023-03-14T17:11:31;8.60;99.90
2162;DHT22;1087;50.226;8.682;2023-03-14T17:13:58;8.40;99.90
2162;DHT22;1087;50.226;8.682;2023-03-14T17:16:24;8.50;99.90
2162;DHT22;1087;50.226;8.682;2023-03-14T17:18:49;8.50;99.90
2162;DHT22;1087;50.226;8.682;2023-03-14T17:21:15;8.40;99.90